sensor_id;sensor_type;location;lat;lon;timestamp;P1;durP1;ratioP1;P2;durP2;ratioP2
27025;SDS011;14565;48.626;8.978;2023-04-24T00:01:46;1.73;;;0.60;;
27025;SDS011;14565;48.626;8.978;2023-04-24T00:04:12;1.20;;;0.80;;
27025;SDS011;14565;48.626;8.978;2023-04-24T00:06:39;2.25;;;0.70;;
27025;SDS011;14565;48.626;8.978;2023-04-24T00:09:07;2.58;;;0.80;;
27025;SDS011;14565;48.626;8.978;2023-04-24T00:11:35;2.67;;;0.65;;
27025;SDS011;14565;48.626;8.978;2023-04-24T00:14:01;1.30;;;0.70;;
27025;SDS011;14565;48.626;8.978;2023-04-24T00:16:26;0.73;;;0.60;;
27025;SDS011;14565;48.626;8.978;2023-04-24T00:18:52;2.45;;;0.60;;
27025;SDS011;14565;48.626;8.978;2023-04-24T00:21:18;1.90;;;0.93;;
27025;SDS011;14565;48.626;8.978;2023-04-24T00:23:44;2.45;;;0.70;;
27025;SDS011;14565;48.626;8.978;2023-04-24T00:26:09;4.65;;;1.00;;
27025;SDS011;14565;48.626;8.978;2023-04-24T00:28:35;2.00;;;0.70;;
27025;SDS011;14565;48.626;8.978;2023-04-24T00:31:01;3.03;;;0.60;;
27025;SDS011;14565;48.626;8.978;2023-04-24T00:33:27;1.65;;;0.55;;
27025;SDS011;14565;48.626;8.978;2023-04-24T00:35:52;3.08;;;0.60;;
27025;SDS011;14565;48.626;8.978;2023-04-24T00:38:18;2.00;;;0.65;;
27025;SDS011;14565;48.626;8.978;2023-04-24T00:40:44;1.77;;;0.75;;
27025;SDS011;14565;48.626;8.978;2023-04-24T00:43:10;2.28;;;0.60;;
27025;SDS011;14565;48.626;8.978;2023-04-24T00:45:36;1.65;;;0.60;;
27025;SDS011;14565;48.626;8.978;2023-04-24T00:48:01;2.33;;;0.68;;
27025;SDS011;14565;48.626;8.978;2023-04-24T00:50:28;0.93;;;0.70;;
27025;SDS011;14565;48.626;8.978;2023-04-24T00:52:54;2.15;;;0.60;;
27025;SDS011;14565;48.626;8.978;2023-04-24T00:55:20;1.98;;;0.70;;
27025;SDS011;14565;48.626;8.978;2023-04-24T00:57:46;4.60;;;0.68;;
27025;SDS011;14565;48.626;8.978;2023-04-24T01:00:12;2.88;;;0.60;;
27025;SDS011;14565;48.626;8.978;2023-04-24T01:02:43;3.30;;;0.60;;
27025;SDS011;14565;48.626;8.978;2023-04-24T01:05:10;1.88;;;0.80;;
27025;SDS011;14565;48.626;8.978;2023-04-24T01:07:38;2.15;;;0.90;;
27025;SDS011;14565;48.626;8.978;2023-04-24T01:10:09;0.95;;;0.65;;
27025;SDS011;14565;48.626;8.978;2023-04-24T01:12:35;2.00;;;1.02;;
27025;SDS011;14565;48.626;8.978;2023-04-24T01:15:00;1.42;;;0.65;;
27025;SDS011;14565;48.626;8.978;2023-04-24T01:17:26;2.40;;;0.68;;
27025;SDS011;14565;48.626;8.978;2023-04-24T01:19:51;2.42;;;1.00;;
27025;SDS011;14565;48.626;8.978;2023-04-24T01:22:22;1.88;;;0.70;;
27025;SDS011;14565;48.626;8.978;2023-04-24T01:24:47;3.65;;;0.60;;
27025;SDS011;14565;48.626;8.978;2023-04-24T01:27:13;2.95;;;0.70;;
27025;SDS011;14565;48.626;8.978;2023-04-24T01:29:40;3.00;;;0.70;;
27025;SDS011;14565;48.626;8.978;2023-04-24T01:32:06;4.38;;;0.68;;
27025;SDS011;14565;48.626;8.978;2023-04-24T01:34:32;2.28;;;0.88;;
27025;SDS011;14565;48.626;8.978;2023-04-24T01:36:59;1.33;;;0.60;;
27025;SDS011;14565;48.626;8.978;2023-04-24T01:39:25;0.77;;;0.60;;
27025;SDS011;14565;48.626;8.978;2023-04-24T01:41:53;3.30;;;0.93;;
27025;SDS011;14565;48.626;8.978;2023-04-24T01:44:19;2.72;;;1.10;;
27025;SDS011;14565;48.626;8.978;2023-04-24T01:46:45;1.48;;;0.80;;
27025;SDS011;14565;48.626;8.978;2023-04-24T01:49:11;2.10;;;0.90;;
27025;SDS011;14565;48.626;8.978;2023-04-24T01:51:37;1.02;;;0.50;;
27025;SDS011;14565;48.626;8.978;2023-04-24T01:54:03;1.35;;;0.70;;
27025;SDS011;14565;48.626;8.978;2023-04-24T01:56:30;2.90;;;0.70;;
27025;SDS011;14565;48.626;8.978;2023-04-24T02:01:24;2.92;;;0.80;;
27025;SDS011;14565;48.626;8.978;2023-04-24T02:03:50;1.27;;;0.80;;
27025;SDS011;14565;48.626;8.978;2023-04-24T02:06:16;1.83;;;0.85;;
27025;SDS011;14565;48.626;8.978;2023-04-24T02:08:42;1.42;;;0.70;;
27025;SDS011;14565;48.626;8.978;2023-04-24T02:11:10;3.42;;;0.80;;
27025;SDS011;14565;48.626;8.978;2023-04-24T02:13:36;1.20;;;0.77;;
27025;SDS011;14565;48.626;8.978;2023-04-24T02:16:01;3.90;;;0.90;;
27025;SDS011;14565;48.626;8.978;2023-04-24T02:18:27;2.20;;;0.90;;
27025;SDS011;14565;48.626;8.978;2023-04-24T02:20:53;2.55;;;0.70;;
27025;SDS011;14565;48.626;8.978;2023-04-24T02:23:18;1.65;;;0.93;;
27025;SDS011;14565;48.626;8.978;2023-04-24T02:25:44;1.25;;;0.80;;
27025;SDS011;14565;48.626;8.978;2023-04-24T02:28:10;4.20;;;0.90;;
27025;SDS011;14565;48.626;8.978;2023-04-24T02:30:36;1.92;;;0.90;;
27025;SDS011;14565;48.626;8.978;2023-04-24T02:33:02;1.05;;;0.80;;
27025;SDS011;14565;48.626;8.978;2023-04-24T02:35:28;2.08;;;0.90;;
27025;SDS011;14565;48.626;8.978;2023-04-24T02:37:53;2.30;;;0.90;;
27025;SDS011;14565;48.626;8.978;2023-04-24T02:40:19;2.03;;;0.70;;
27025;SDS011;14565;48.626;8.978;2023-04-24T02:42:45;2.95;;;1.08;;
27025;SDS011;14565;48.626;8.978;2023-04-24T02:45:10;2.00;;;0.75;;
27025;SDS011;14565;48.626;8.978;2023-04-24T02:47:36;3.75;;;0.80;;
27025;SDS011;14565;48.626;8.978;2023-04-24T02:50:02;2.45;;;0.75;;
27025;SDS011;14565;48.626;8.978;2023-04-24T02:52:28;2.00;;;0.90;;
27025;SDS011;14565;48.626;8.978;2023-04-24T02:54:54;1.02;;;0.70;;
27025;SDS011;14565;48.626;8.978;2023-04-24T02:57:19;3.03;;;0.90;;
27025;SDS011;14565;48.626;8.978;2023-04-24T02:59:45;3.15;;;0.80;;
27025;SDS011;14565;48.626;8.978;2023-04-24T03:02:10;1.13;;;0.90;;
27025;SDS011;14565;48.626;8.978;2023-04-24T03:04:36;2.50;;;1.00;;
27025;SDS011;14565;48.626;8.978;2023-04-24T03:07:01;2.40;;;0.80;;
27025;SDS011;14565;48.626;8.978;2023-04-24T03:09:27;2.58;;;0.82;;
27025;SDS011;14565;48.626;8.978;2023-04-24T03:11:53;2.03;;;0.80;;
27025;SDS011;14565;48.626;8.978;2023-04-24T03:14:18;1.80;;;0.90;;
27025;SDS011;14565;48.626;8.978;2023-04-24T03:16:44;2.78;;;0.88;;
27025;SDS011;14565;48.626;8.978;2023-04-24T03:19:10;3.92;;;0.70;;
27025;SDS011;14565;48.626;8.978;2023-04-24T03:21:35;2.97;;;0.80;;
27025;SDS011;14565;48.626;8.978;2023-04-24T03:24:05;2.35;;;0.80;;
27025;SDS011;14565;48.626;8.978;2023-04-24T03:26:37;2.67;;;0.80;;
27025;SDS011;14565;48.626;8.978;2023-04-24T03:29:02;1.00;;;0.60;;
27025;SDS011;14565;48.626;8.978;2023-04-24T03:31:28;1.45;;;0.70;;
27025;SDS011;14565;48.626;8.978;2023-04-24T03:33:54;5.40;;;0.95;;
27025;SDS011;14565;48.626;8.978;2023-04-24T03:36:20;3.05;;;0.75;;
27025;SDS011;14565;48.626;8.978;2023-04-24T03:38:45;2.10;;;0.80;;
27025;SDS011;14565;48.626;8.978;2023-04-24T03:41:11;3.33;;;0.70;;
27025;SDS011;14565;48.626;8.978;2023-04-24T03:43:37;1.88;;;0.70;;
27025;SDS011;14565;48.626;8.978;2023-04-24T03:46:03;1.58;;;0.60;;
27025;SDS011;14565;48.626;8.978;2023-04-24T03:48:28;1.35;;;0.60;;
27025;SDS011;14565;48.626;8.978;2023-04-24T03:50:54;1.15;;;0.60;;
27025;SDS011;14565;48.626;8.978;2023-04-24T03:53:20;1.95;;;0.52;;
27025;SDS011;14565;48.626;8.978;2023-04-24T03:55:45;1.23;;;0.63;;
27025;SDS011;14565;48.626;8.978;2023-04-24T03:58:11;1.88;;;0.60;;
27025;SDS011;14565;48.626;8.978;2023-04-24T04:00:38;0.95;;;0.60;;
27025;SDS011;14565;48.626;8.978;2023-04-24T04:03:05;2.70;;;0.60;;
27025;SDS011;14565;48.626;8.978;2023-04-24T04:05:31;1.35;;;0.60;;
27025;SDS011;14565;48.626;8.978;2023-04-24T04:07:56;1.33;;;0.57;;
27025;SDS011;14565;48.626;8.978;2023-04-24T04:10:22;3.38;;;0.60;;
27025;SDS011;14565;48.626;8.978;2023-04-24T04:12:48;3.10;;;0.70;;
27025;SDS011;14565;48.626;8.978;2023-04-24T04:15:13;2.20;;;0.60;;
27025;SDS011;14565;48.626;8.978;2023-04-24T04:17:39;1.83;;;0.70;;
27025;SDS011;14565;48.626;8.978;2023-04-24T04:20:05;2.35;;;0.90;;
27025;SDS011;14565;48.626;8.978;2023-04-24T04:22:34;1.33;;;0.70;;
27025;SDS011;14565;48.626;8.978;2023-04-24T04:25:00;1.70;;;0.52;;
27025;SDS011;14565;48.626;8.978;2023-04-24T04:27:26;1.75;;;0.65;;
27025;SDS011;14565;48.626;8.978;2023-04-24T04:29:53;1.60;;;0.70;;
27025;SDS011;14565;48.626;8.978;2023-04-24T04:32:21;1.42;;;0.63;;
27025;SDS011;14565;48.626;8.978;2023-04-24T04:34:47;1.95;;;0.85;;
27025;SDS011;14565;48.626;8.978;2023-04-24T04:37:14;2.25;;;1.00;;
27025;SDS011;14565;48.626;8.978;2023-04-24T04:39:40;0.85;;;0.70;;
27025;SDS011;14565;48.626;8.978;2023-04-24T04:42:06;1.52;;;0.93;;
27025;SDS011;14565;48.626;8.978;2023-04-24T04:44:31;3.65;;;1.58;;
27025;SDS011;14565;48.626;8.978;2023-04-24T04:46:57;1.10;;;1.00;;
27025;SDS011;14565;48.626;8.978;2023-04-24T04:49:25;1.52;;;1.35;;
27025;SDS011;14565;48.626;8.978;2023-04-24T04:51:53;3.50;;;1.25;;
27025;SDS011;14565;48.626;8.978;2023-04-24T04:54:19;1.73;;;1.15;;
27025;SDS011;14565;48.626;8.978;2023-04-24T04:56:44;3.63;;;1.65;;
27025;SDS011;14565;48.626;8.978;2023-04-24T04:59:10;3.30;;;1.38;;
27025;SDS011;14565;48.626;8.978;2023-04-24T05:01:37;1.88;;;1.10;;
27025;SDS011;14565;48.626;8.978;2023-04-24T05:04:03;2.00;;;1.30;;
27025;SDS011;14565;48.626;8.978;2023-04-24T05:06:28;2.20;;;1.42;;
27025;SDS011;14565;48.626;8.978;2023-04-24T05:08:55;1.40;;;1.27;;
27025;SDS011;14565;48.626;8.978;2023-04-24T05:11:22;2.83;;;1.35;;
27025;SDS011;14565;48.626;8.978;2023-04-24T05:13:50;3.17;;;1.83;;
27025;SDS011;14565;48.626;8.978;2023-04-24T05:16:19;3.03;;;2.15;;
27025;SDS011;14565;48.626;8.978;2023-04-24T05:18:45;2.42;;;1.80;;
27025;SDS011;14565;48.626;8.978;2023-04-24T05:21:11;4.70;;;2.30;;
27025;SDS011;14565;48.626;8.978;2023-04-24T05:23:36;2.35;;;1.85;;
27025;SDS011;14565;48.626;8.978;2023-04-24T05:26:02;4.45;;;2.00;;
27025;SDS011;14565;48.626;8.978;2023-04-24T05:28:28;3.78;;;2.47;;
27025;SDS011;14565;48.626;8.978;2023-04-24T05:30:54;3.88;;;2.38;;
27025;SDS011;14565;48.626;8.978;2023-04-24T05:33:21;3.88;;;2.78;;
27025;SDS011;14565;48.626;8.978;2023-04-24T05:35:47;3.78;;;2.60;;
27025;SDS011;14565;48.626;8.978;2023-04-24T05:38:15;4.13;;;2.72;;
27025;SDS011;14565;48.626;8.978;2023-04-24T05:40:45;4.38;;;2.50;;
27025;SDS011;14565;48.626;8.978;2023-04-24T05:43:11;5.40;;;2.35;;
27025;SDS011;14565;48.626;8.978;2023-04-24T05:45:37;3.92;;;2.60;;
27025;SDS011;14565;48.626;8.978;2023-04-24T05:48:03;6.72;;;1.95;;
27025;SDS011;14565;48.626;8.978;2023-04-24T05:50:29;3.67;;;1.92;;
27025;SDS011;14565;48.626;8.978;2023-04-24T05:52:55;2.88;;;2.05;;
27025;SDS011;14565;48.626;8.978;2023-04-24T05:55:24;3.03;;;1.80;;
27025;SDS011;14565;48.626;8.978;2023-04-24T05:57:51;5.15;;;2.10;;
27025;SDS011;14565;48.626;8.978;2023-04-24T06:00:16;4.68;;;2.10;;
27025;SDS011;14565;48.626;8.978;2023-04-24T06:02:44;3.45;;;2.15;;
27025;SDS011;14565;48.626;8.978;2023-04-24T06:05:10;2.20;;;1.70;;
27025;SDS011;14565;48.626;8.978;2023-04-24T06:07:36;4.10;;;2.20;;
27025;SDS011;14565;48.626;8.978;2023-04-24T06:10:02;3.80;;;1.95;;
27025;SDS011;14565;48.626;8.978;2023-04-24T06:12:28;1.85;;;1.42;;
27025;SDS011;14565;48.626;8.978;2023-04-24T06:14:54;1.73;;;1.38;;
27025;SDS011;14565;48.626;8.978;2023-04-24T06:17:20;1.48;;;0.90;;
27025;SDS011;14565;48.626;8.978;2023-04-24T06:20:04;1.40;;;1.00;;
27025;SDS011;14565;48.626;8.978;2023-04-24T06:22:31;2.88;;;0.98;;
27025;SDS011;14565;48.626;8.978;2023-04-24T06:24:57;1.10;;;0.90;;
27025;SDS011;14565;48.626;8.978;2023-04-24T06:27:22;1.05;;;0.80;;
27025;SDS011;14565;48.626;8.978;2023-04-24T06:29:48;1.13;;;0.98;;
27025;SDS011;14565;48.626;8.978;2023-04-24T06:32:20;1.67;;;1.17;;
27025;SDS011;14565;48.626;8.978;2023-04-24T06:34:47;2.38;;;1.02;;
27025;SDS011;14565;48.626;8.978;2023-04-24T06:37:13;1.42;;;1.00;;
27025;SDS011;14565;48.626;8.978;2023-04-24T06:39:40;1.73;;;1.00;;
27025;SDS011;14565;48.626;8.978;2023-04-24T06:42:06;3.95;;;1.20;;
27025;SDS011;14565;48.626;8.978;2023-04-24T06:44:33;3.35;;;1.38;;
27025;SDS011;14565;48.626;8.978;2023-04-24T06:47:02;1.92;;;1.10;;
27025;SDS011;14565;48.626;8.978;2023-04-24T06:49:28;2.70;;;1.20;;
27025;SDS011;14565;48.626;8.978;2023-04-24T06:51:56;3.58;;;1.30;;
27025;SDS011;14565;48.626;8.978;2023-04-24T06:54:22;2.22;;;1.30;;
27025;SDS011;14565;48.626;8.978;2023-04-24T06:56:48;3.03;;;1.35;;
27025;SDS011;14565;48.626;8.978;2023-04-24T06:59:15;2.50;;;1.40;;
27025;SDS011;14565;48.626;8.978;2023-04-24T07:01:41;2.20;;;1.50;;
27025;SDS011;14565;48.626;8.978;2023-04-24T07:04:07;3.35;;;1.60;;
27025;SDS011;14565;48.626;8.978;2023-04-24T07:06:32;1.67;;;1.45;;
27025;SDS011;14565;48.626;8.978;2023-04-24T07:08:58;2.17;;;1.20;;
27025;SDS011;14565;48.626;8.978;2023-04-24T07:11:25;2.88;;;1.27;;
27025;SDS011;14565;48.626;8.978;2023-04-24T07:13:54;2.35;;;1.17;;
27025;SDS011;14565;48.626;8.978;2023-04-24T07:16:20;1.88;;;1.20;;
27025;SDS011;14565;48.626;8.978;2023-04-24T07:18:49;1.70;;;1.20;;
27025;SDS011;14565;48.626;8.978;2023-04-24T07:21:15;1.50;;;1.08;;
27025;SDS011;14565;48.626;8.978;2023-04-24T07:23:40;2.35;;;1.10;;
27025;SDS011;14565;48.626;8.978;2023-04-24T07:26:06;1.80;;;1.10;;
27025;SDS011;14565;48.626;8.978;2023-04-24T07:28:32;1.52;;;1.00;;
27025;SDS011;14565;48.626;8.978;2023-04-24T07:30:57;3.42;;;1.00;;
27025;SDS011;14565;48.626;8.978;2023-04-24T07:33:24;1.67;;;0.90;;
27025;SDS011;14565;48.626;8.978;2023-04-24T07:35:53;1.35;;;0.90;;
27025;SDS011;14565;48.626;8.978;2023-04-24T07:38:19;2.33;;;1.00;;
27025;SDS011;14565;48.626;8.978;2023-04-24T07:40:47;1.10;;;0.93;;
27025;SDS011;14565;48.626;8.978;2023-04-24T07:43:13;2.30;;;1.17;;
27025;SDS011;14565;48.626;8.978;2023-04-24T07:45:39;1.92;;;1.33;;
27025;SDS011;14565;48.626;8.978;2023-04-24T07:48:05;2.88;;;1.20;;
27025;SDS011;14565;48.626;8.978;2023-04-24T07:50:31;1.85;;;1.10;;
27025;SDS011;14565;48.626;8.978;2023-04-24T07:52:57;1.35;;;0.95;;
27025;SDS011;14565;48.626;8.978;2023-04-24T07:55:23;2.78;;;0.90;;
27025;SDS011;14565;48.626;8.978;2023-04-24T07:57:49;1.70;;;1.00;;
27025;SDS011;14565;48.626;8.978;2023-04-24T08:00:15;2.05;;;1.00;;
27025;SDS011;14565;48.626;8.978;2023-04-24T08:02:41;2.03;;;1.10;;
27025;SDS011;14565;48.626;8.978;2023-04-24T08:05:09;1.55;;;0.90;;
27025;SDS011;14565;48.626;8.978;2023-04-24T08:07:35;1.23;;;0.90;;
27025;SDS011;14565;48.626;8.978;2023-04-24T08:10:01;1.20;;;1.00;;
27025;SDS011;14565;48.626;8.978;2023-04-24T08:12:28;1.90;;;1.30;;
27025;SDS011;14565;48.626;8.978;2023-04-24T08:14:54;2.83;;;1.00;;
27025;SDS011;14565;48.626;8.978;2023-04-24T08:17:26;1.10;;;1.00;;
27025;SDS011;14565;48.626;8.978;2023-04-24T08:19:54;2.25;;;1.40;;
27025;SDS011;14565;48.626;8.978;2023-04-24T08:22:26;2.67;;;1.42;;
27025;SDS011;14565;48.626;8.978;2023-04-24T08:24:55;2.38;;;1.20;;
27025;SDS011;14565;48.626;8.978;2023-04-24T08:27:22;5.15;;;1.52;;
27025;SDS011;14565;48.626;8.978;2023-04-24T08:29:49;1.90;;;1.10;;
27025;SDS011;14565;48.626;8.978;2023-04-24T08:32:15;1.90;;;1.30;;
27025;SDS011;14565;48.626;8.978;2023-04-24T08:34:41;1.40;;;1.00;;
27025;SDS011;14565;48.626;8.978;2023-04-24T08:37:07;2.55;;;1.00;;
27025;SDS011;14565;48.626;8.978;2023-04-24T08:39:33;5.43;;;1.23;;
27025;SDS011;14565;48.626;8.978;2023-04-24T08:41:59;1.40;;;1.00;;
27025;SDS011;14565;48.626;8.978;2023-04-24T08:44:33;1.60;;;1.08;;
27025;SDS011;14565;48.626;8.978;2023-04-24T08:47:03;1.85;;;1.45;;
27025;SDS011;14565;48.626;8.978;2023-04-24T08:49:30;3.97;;;1.20;;
27025;SDS011;14565;48.626;8.978;2023-04-24T08:51:56;3.65;;;1.33;;
27025;SDS011;14565;48.626;8.978;2023-04-24T08:54:22;3.75;;;1.50;;
27025;SDS011;14565;48.626;8.978;2023-04-24T08:56:50;2.10;;;1.40;;
27025;SDS011;14565;48.626;8.978;2023-04-24T08:59:19;2.03;;;1.30;;
27025;SDS011;14565;48.626;8.978;2023-04-24T09:01:47;2.15;;;1.40;;
27025;SDS011;14565;48.626;8.978;2023-04-24T09:04:14;1.58;;;1.10;;
27025;SDS011;14565;48.626;8.978;2023-04-24T09:09:08;3.30;;;1.10;;
27025;SDS011;14565;48.626;8.978;2023-04-24T09:11:36;2.35;;;1.20;;
27025;SDS011;14565;48.626;8.978;2023-04-24T09:14:02;3.92;;;1.20;;
27025;SDS011;14565;48.626;8.978;2023-04-24T09:16:29;3.60;;;1.27;;
27025;SDS011;14565;48.626;8.978;2023-04-24T09:18:58;7.90;;;1.50;;
27025;SDS011;14565;48.626;8.978;2023-04-24T09:21:24;2.78;;;1.27;;
27025;SDS011;14565;48.626;8.978;2023-04-24T09:24:01;2.28;;;0.90;;
27025;SDS011;14565;48.626;8.978;2023-04-24T09:26:31;1.40;;;0.95;;
27025;SDS011;14565;48.626;8.978;2023-04-24T09:28:59;2.33;;;1.17;;
27025;SDS011;14565;48.626;8.978;2023-04-24T09:31:27;2.25;;;1.10;;
27025;SDS011;14565;48.626;8.978;2023-04-24T09:33:54;3.45;;;1.20;;
27025;SDS011;14565;48.626;8.978;2023-04-24T09:39:02;1.33;;;0.75;;
27025;SDS011;14565;48.626;8.978;2023-04-24T09:41:31;2.47;;;0.90;;
27025;SDS011;14565;48.626;8.978;2023-04-24T09:43:58;4.15;;;1.00;;
27025;SDS011;14565;48.626;8.978;2023-04-24T09:46:37;3.65;;;0.80;;
27025;SDS011;14565;48.626;8.978;2023-04-24T09:49:11;4.78;;;0.98;;
27025;SDS011;14565;48.626;8.978;2023-04-24T09:51:39;2.65;;;0.90;;
27025;SDS011;14565;48.626;8.978;2023-04-24T09:54:14;1.02;;;0.80;;
27025;SDS011;14565;48.626;8.978;2023-04-24T09:56:45;2.78;;;0.85;;
27025;SDS011;14565;48.626;8.978;2023-04-24T09:59:13;1.55;;;0.90;;
27025;SDS011;14565;48.626;8.978;2023-04-24T10:01:39;2.05;;;0.80;;
27025;SDS011;14565;48.626;8.978;2023-04-24T10:04:14;1.80;;;0.90;;
27025;SDS011;14565;48.626;8.978;2023-04-24T10:06:44;0.70;;;0.70;;
27025;SDS011;14565;48.626;8.978;2023-04-24T10:09:11;1.10;;;0.60;;
27025;SDS011;14565;48.626;8.978;2023-04-24T10:11:40;0.95;;;0.70;;
27025;SDS011;14565;48.626;8.978;2023-04-24T10:14:09;2.40;;;0.80;;
27025;SDS011;14565;48.626;8.978;2023-04-24T10:16:37;1.27;;;0.88;;
27025;SDS011;14565;48.626;8.978;2023-04-24T10:19:04;1.63;;;0.87;;
27025;SDS011;14565;48.626;8.978;2023-04-24T10:21:30;1.98;;;0.75;;
27025;SDS011;14565;48.626;8.978;2023-04-24T10:23:57;3.42;;;0.90;;
27025;SDS011;14565;48.626;8.978;2023-04-24T10:26:25;2.15;;;0.95;;
27025;SDS011;14565;48.626;8.978;2023-04-24T10:28:52;2.00;;;0.98;;
27025;SDS011;14565;48.626;8.978;2023-04-24T10:31:22;0.88;;;0.77;;
27025;SDS011;14565;48.626;8.978;2023-04-24T10:33:48;1.95;;;0.80;;
27025;SDS011;14565;48.626;8.978;2023-04-24T10:36:16;1.90;;;0.90;;
27025;SDS011;14565;48.626;8.978;2023-04-24T10:38:43;2.13;;;0.90;;
27025;SDS011;14565;48.626;8.978;2023-04-24T10:41:12;1.20;;;0.95;;
27025;SDS011;14565;48.626;8.978;2023-04-24T10:43:44;1.70;;;0.85;;
27025;SDS011;14565;48.626;8.978;2023-04-24T10:46:11;2.85;;;0.80;;
27025;SDS011;14565;48.626;8.978;2023-04-24T10:48:44;2.30;;;1.17;;
27025;SDS011;14565;48.626;8.978;2023-04-24T10:51:21;2.30;;;0.75;;
27025;SDS011;14565;48.626;8.978;2023-04-24T10:53:49;2.35;;;0.90;;
27025;SDS011;14565;48.626;8.978;2023-04-24T10:56:16;2.50;;;0.93;;
27025;SDS011;14565;48.626;8.978;2023-04-24T10:58:43;2.55;;;0.90;;
27025;SDS011;14565;48.626;8.978;2023-04-24T11:01:30;1.10;;;0.88;;
27025;SDS011;14565;48.626;8.978;2023-04-24T11:04:00;2.70;;;0.88;;
27025;SDS011;14565;48.626;8.978;2023-04-24T11:06:31;2.38;;;1.40;;
27025;SDS011;14565;48.626;8.978;2023-04-24T11:11:34;1.23;;;0.73;;
27025;SDS011;14565;48.626;8.978;2023-04-24T11:14:02;1.33;;;0.80;;
27025;SDS011;14565;48.626;8.978;2023-04-24T11:16:31;1.50;;;1.13;;
27025;SDS011;14565;48.626;8.978;2023-04-24T11:21:44;1.85;;;0.90;;
27025;SDS011;14565;48.626;8.978;2023-04-24T11:24:22;1.38;;;0.82;;
27025;SDS011;14565;48.626;8.978;2023-04-24T11:26:51;1.23;;;0.85;;
27025;SDS011;14565;48.626;8.978;2023-04-24T11:29:21;1.95;;;0.85;;
27025;SDS011;14565;48.626;8.978;2023-04-24T11:31:48;0.75;;;0.70;;
27025;SDS011;14565;48.626;8.978;2023-04-24T11:34:16;1.45;;;0.60;;
27025;SDS011;14565;48.626;8.978;2023-04-24T11:36:43;1.38;;;0.80;;
27025;SDS011;14565;48.626;8.978;2023-04-24T11:39:10;2.23;;;0.73;;
27025;SDS011;14565;48.626;8.978;2023-04-24T11:41:36;0.70;;;0.70;;
27025;SDS011;14565;48.626;8.978;2023-04-24T11:44:02;1.60;;;0.82;;
27025;SDS011;14565;48.626;8.978;2023-04-24T11:46:30;2.75;;;0.75;;
27025;SDS011;14565;48.626;8.978;2023-04-24T11:48:57;1.17;;;0.80;;
27025;SDS011;14565;48.626;8.978;2023-04-24T11:51:23;2.50;;;1.08;;
27025;SDS011;14565;48.626;8.978;2023-04-24T11:53:53;1.40;;;1.00;;
27025;SDS011;14565;48.626;8.978;2023-04-24T11:56:23;1.40;;;0.95;;
27025;SDS011;14565;48.626;8.978;2023-04-24T11:58:52;0.93;;;0.80;;
27025;SDS011;14565;48.626;8.978;2023-04-24T12:01:19;1.13;;;1.02;;
27025;SDS011;14565;48.626;8.978;2023-04-24T12:03:49;1.08;;;0.90;;
27025;SDS011;14565;48.626;8.978;2023-04-24T12:06:19;2.33;;;1.00;;
27025;SDS011;14565;48.626;8.978;2023-04-24T12:08:45;1.77;;;1.00;;
27025;SDS011;14565;48.626;8.978;2023-04-24T12:11:14;2.53;;;1.00;;
27025;SDS011;14565;48.626;8.978;2023-04-24T12:13:41;2.83;;;1.00;;
27025;SDS011;14565;48.626;8.978;2023-04-24T12:16:06;3.35;;;0.95;;
27025;SDS011;14565;48.626;8.978;2023-04-24T12:18:32;1.33;;;0.70;;
27025;SDS011;14565;48.626;8.978;2023-04-24T12:23:47;3.28;;;1.00;;
27025;SDS011;14565;48.626;8.978;2023-04-24T12:26:16;1.65;;;0.80;;
27025;SDS011;14565;48.626;8.978;2023-04-24T12:28:45;1.70;;;0.93;;
27025;SDS011;14565;48.626;8.978;2023-04-24T12:31:13;5.30;;;0.80;;
27025;SDS011;14565;48.626;8.978;2023-04-24T12:33:39;1.67;;;0.88;;
27025;SDS011;14565;48.626;8.978;2023-04-24T12:36:04;2.75;;;1.00;;
27025;SDS011;14565;48.626;8.978;2023-04-24T12:38:31;2.13;;;1.00;;
27025;SDS011;14565;48.626;8.978;2023-04-24T12:41:08;0.90;;;0.80;;
27025;SDS011;14565;48.626;8.978;2023-04-24T12:43:35;1.90;;;0.93;;
27025;SDS011;14565;48.626;8.978;2023-04-24T12:46:01;3.63;;;1.20;;
27025;SDS011;14565;48.626;8.978;2023-04-24T12:48:27;2.92;;;0.90;;
27025;SDS011;14565;48.626;8.978;2023-04-24T12:50:54;1.50;;;1.00;;
27025;SDS011;14565;48.626;8.978;2023-04-24T12:53:21;1.37;;;1.10;;
27025;SDS011;14565;48.626;8.978;2023-04-24T12:55:47;3.80;;;1.00;;
27025;SDS011;14565;48.626;8.978;2023-04-24T12:58:20;1.50;;;1.13;;
27025;SDS011;14565;48.626;8.978;2023-04-24T13:00:47;3.03;;;0.90;;
27025;SDS011;14565;48.626;8.978;2023-04-24T13:03:13;3.10;;;1.10;;
27025;SDS011;14565;48.626;8.978;2023-04-24T13:05:38;2.67;;;1.50;;
27025;SDS011;14565;48.626;8.978;2023-04-24T13:08:04;4.60;;;1.30;;
27025;SDS011;14565;48.626;8.978;2023-04-24T13:10:30;3.90;;;2.40;;
27025;SDS011;14565;48.626;8.978;2023-04-24T13:12:56;3.28;;;1.40;;
27025;SDS011;14565;48.626;8.978;2023-04-24T13:15:22;1.92;;;1.10;;
27025;SDS011;14565;48.626;8.978;2023-04-24T13:17:51;3.47;;;1.17;;
27025;SDS011;14565;48.626;8.978;2023-04-24T13:20:16;3.53;;;2.15;;
27025;SDS011;14565;48.626;8.978;2023-04-24T13:22:42;2.28;;;1.52;;
27025;SDS011;14565;48.626;8.978;2023-04-24T13:25:08;2.83;;;1.60;;
27025;SDS011;14565;48.626;8.978;2023-04-24T13:27:34;1.92;;;1.40;;
27025;SDS011;14565;48.626;8.978;2023-04-24T13:29:59;2.63;;;1.33;;
27025;SDS011;14565;48.626;8.978;2023-04-24T13:32:25;2.20;;;1.50;;
27025;SDS011;14565;48.626;8.978;2023-04-24T13:34:52;1.73;;;1.27;;
27025;SDS011;14565;48.626;8.978;2023-04-24T13:37:18;2.53;;;1.23;;
27025;SDS011;14565;48.626;8.978;2023-04-24T13:39:43;4.53;;;1.00;;
27025;SDS011;14565;48.626;8.978;2023-04-24T13:42:09;2.35;;;1.30;;
27025;SDS011;14565;48.626;8.978;2023-04-24T13:44:35;1.95;;;1.10;;
27025;SDS011;14565;48.626;8.978;2023-04-24T13:47:01;2.90;;;1.27;;
27025;SDS011;14565;48.626;8.978;2023-04-24T13:49:27;1.73;;;1.13;;
27025;SDS011;14565;48.626;8.978;2023-04-24T13:51:54;2.17;;;1.20;;
27025;SDS011;14565;48.626;8.978;2023-04-24T13:54:20;3.15;;;1.38;;
27025;SDS011;14565;48.626;8.978;2023-04-24T13:56:48;1.88;;;1.20;;
27025;SDS011;14565;48.626;8.978;2023-04-24T13:59:14;2.70;;;1.30;;
27025;SDS011;14565;48.626;8.978;2023-04-24T14:01:40;2.40;;;1.27;;
27025;SDS011;14565;48.626;8.978;2023-04-24T14:04:06;4.72;;;1.48;;
27025;SDS011;14565;48.626;8.978;2023-04-24T14:06:31;1.95;;;1.27;;
27025;SDS011;14565;48.626;8.978;2023-04-24T14:08:57;6.63;;;1.45;;
27025;SDS011;14565;48.626;8.978;2023-04-24T14:11:22;2.40;;;1.15;;
27025;SDS011;14565;48.626;8.978;2023-04-24T14:13:48;3.15;;;1.35;;
27025;SDS011;14565;48.626;8.978;2023-04-24T14:16:14;1.73;;;1.08;;
27025;SDS011;14565;48.626;8.978;2023-04-24T14:18:40;2.15;;;1.25;;
27025;SDS011;14565;48.626;8.978;2023-04-24T14:21:06;1.95;;;1.10;;
27025;SDS011;14565;48.626;8.978;2023-04-24T14:23:32;2.35;;;1.40;;
27025;SDS011;14565;48.626;8.978;2023-04-24T14:25:58;2.25;;;1.05;;
27025;SDS011;14565;48.626;8.978;2023-04-24T14:28:24;3.30;;;1.50;;
27025;SDS011;14565;48.626;8.978;2023-04-24T14:30:51;3.30;;;1.30;;
27025;SDS011;14565;48.626;8.978;2023-04-24T14:33:17;2.50;;;1.30;;
27025;SDS011;14565;48.626;8.978;2023-04-24T14:35:43;3.25;;;1.35;;
27025;SDS011;14565;48.626;8.978;2023-04-24T14:38:11;1.83;;;1.20;;
27025;SDS011;14565;48.626;8.978;2023-04-24T14:40:37;1.65;;;1.23;;
27025;SDS011;14565;48.626;8.978;2023-04-24T14:43:03;3.35;;;1.45;;
27025;SDS011;14565;48.626;8.978;2023-04-24T14:45:29;4.70;;;1.38;;
27025;SDS011;14565;48.626;8.978;2023-04-24T14:47:55;2.53;;;1.10;;
27025;SDS011;14565;48.626;8.978;2023-04-24T14:50:21;2.63;;;1.20;;
27025;SDS011;14565;48.626;8.978;2023-04-24T14:52:47;2.58;;;1.20;;
27025;SDS011;14565;48.626;8.978;2023-04-24T14:55:12;2.22;;;1.80;;
27025;SDS011;14565;48.626;8.978;2023-04-24T14:57:39;3.80;;;1.13;;
27025;SDS011;14565;48.626;8.978;2023-04-24T15:00:05;2.53;;;1.30;;
27025;SDS011;14565;48.626;8.978;2023-04-24T15:02:35;2.28;;;1.20;;